Portada
METAR-TAF:

METAR-TAF

Aeropuertos :

Xi'an, China

Aeropuerto Internacional de Xi'an-Xianyang

latitud: 34-26N, longitud: 108-45E, altitud: 479 m

Observación

El informe se hizo hace 28 minutos, a las 15:00 UTC
Viento 6 kt del noreste
Temperatura 0°C
Humedad 69%
Presión 1024 hPa
Visibilidad: 5000 m
calima

METAR: ZLXY 231500Z 04003MPS 5000 HZ NSC 00/M05 Q1024 NOSIG

Hora: 23:28 (15:28 UTC)

Pronóstico

El informe se hizo hace 6 horas y 15 minutos, a las 09:13 UTC
Pronóstico válido del 23 a las 12 UTC al 24 a las 12 UTC
Viento 8 kt del este-noreste con ráfagas de 17 kt
Visibilidad: 3000 m
Cielo cubierto a una altura de 4000 ft
neblina
Evolucionando progresivamente
del 24 a las 00 UTC al 24 a las 01 UTC
Visibilidad: 2000 m
poca nieve, neblina

TAF: ZLXY 230913Z 2312/2412 06004G09MPS 3000 BR OVC040 TX00/2313Z TNM03/23Z BECMG 2400/2401 2000 -SN BR

Observaciones y pronósticos meteorológicos de más de 4000 aeropuertos (mensajes METAR y TAF).

Los puntos amarillos y rojos representan las estaciones disponibles.

Ponga el ratón en el punto deseado para ver el nombre de la estación.

Haga clic para ver las observaciones y los pronósticos meteorológicos.

Para cambiar el mapa : haga clic en los botones verdes con una cruz de color negro para hacer un zoom, en el botón verde con un guión para alejar o en las flechas verdes para mapas adyacentes.


METAR-TAF: